LIVE Streaming HD
Get Adobe Flash player
Annunci di Google
SATELLITE
Annuci di Google
Dati meteo stazione (refresh automatico ogni minuto)
Senigallia(AN) VENTO: VELOCITÀ   PIOGGIA: QTA GIORNO TEMPERATURA: ATTUALE
SPOT: Darsena Di Senigallia RAFFICA MASSIMA: QTA MENSILE: MASSIMA:
VELOCITÀ MEDIA: QTA ANNUALE: MINIMA:
DIREZIONE: UMIDITÀ: WIND CHILL:
TIPO: DEW POINT:
BEAUFORT: PRESSIONE:
I nostri partner
Senigallia(AN) nelle ultime ore
Applica filtri in visualizzazione Intervallo delle letture nelle ultime

Ora Direzione Vento Velocita' Vento Media Vento Raffica Max. Temperatura Wind Chill Pioggia Pressione
18:14:15317 °(NW)12.2 Kts12.2 Kts22.6 Kts-38.6 °C-61.2 °C9 mm1009.9 Hpa
18:09:07330 °(NNW)13 Kts13 Kts22.6 Kts-38.6 °C-62.9 °C9 mm1009.7 Hpa
18:04:02319 °(NW)14.8 Kts14.8 Kts22.6 Kts-38.2 °C-65.2 °C9 mm1009.7 Hpa
17:58:54323 °(NW)12.2 Kts15.6 Kts22.6 Kts-38.2 °C-66.4 °C9 mm1009.7 Hpa
17:54:34328 °(NNW)14.8 Kts16.5 Kts22.6 Kts-38 °C-67.4 °C8.8 mm1009.7 Hpa
17:49:32319 °(NW)17.4 Kts15.6 Kts22.6 Kts-38 °C-66 °C8.8 mm1009.5 Hpa
17:44:08327 °(NNW)15.6 Kts14.8 Kts22.6 Kts-37.7 °C-64.5 °C8.6 mm1009.6 Hpa
17:39:02338 °(NNW)13 Kts14.8 Kts22.6 Kts-37.5 °C-64.2 °C8.6 mm1009.5 Hpa
17:33:47340 °(NNW)11.3 Kts14.8 Kts22.6 Kts-37.4 °C-63.9 °C8.4 mm1009.4 Hpa
17:29:27328 °(NNW)16.5 Kts14.8 Kts22.6 Kts-36.9 °C-63.2 °C8.2 mm1009.2 Hpa
17:24:29321 °(NW)14.8 Kts13.9 Kts22.6 Kts-36.7 °C-61.5 °C8.2 mm1009.2 Hpa
17:19:27317 °(NW)14.8 Kts13.9 Kts22.6 Kts-36.4 °C-61.3 °C8.2 mm1009.2 Hpa
17:14:23323 °(NW)13.9 Kts13.9 Kts22.6 Kts-36.2 °C-60.9 °C8.2 mm1009.1 Hpa
17:09:23339 °(NNW)11.3 Kts12.2 Kts22.6 Kts-36.2 °C-58.2 °C8.2 mm1008.9 Hpa
17:04:24321 °(NW)13 Kts13 Kts22.6 Kts-35.9 °C-59.4 °C8 mm1008.9 Hpa
16:59:22329 °(NNW)11.3 Kts13.9 Kts22.6 Kts-36.4 °C-61.3 °C8 mm1008.7 Hpa
16:54:22346 °(NNW)13 Kts13.9 Kts22.6 Kts-35.9 °C-60.5 °C8 mm1008.5 Hpa
16:49:11344 °(NNW)15.6 Kts14.8 Kts22.6 Kts-36.4 °C-62.6 °C8 mm1008.5 Hpa
16:44:19346 °(NNW)13.9 Kts13.9 Kts22.6 Kts-36.2 °C-60.9 °C8 mm1008.5 Hpa
16:39:08344 °(NNW)16.5 Kts13 Kts22.6 Kts-36.2 °C-59.7 °C8 mm1008.5 Hpa
16:34:08347 °(NNW)9.6 Kts12.2 Kts22.6 Kts-36.2 °C-58.2 °C8 mm1008.4 Hpa
16:29:15355 °(N)14.8 Kts11.3 Kts22.6 Kts-36.4 °C-57.2 °C8 mm1008.3 Hpa
16:24:1512 °(NNE)7.8 Kts12.2 Kts22.6 Kts-36.4 °C-58.6 °C8 mm1008.3 Hpa
16:19:1415 °(NNE)12.2 Kts13 Kts22.6 Kts-36.7 °C-60.2 °C8 mm1008 Hpa